createdAt,value
2018-09-21T00:01:42.792Z,14.50
2018-09-21T00:04:19.412Z,14.50
2018-09-21T00:06:56.051Z,14.50
2018-09-21T00:09:32.956Z,14.60
2018-09-21T00:12:09.556Z,14.70
2018-09-21T00:14:46.156Z,14.40
2018-09-21T00:17:22.875Z,14.50
2018-09-21T00:19:59.402Z,14.70
2018-09-21T00:22:35.777Z,14.50
2018-09-21T00:25:12.356Z,14.70
2018-09-21T00:27:48.752Z,14.50
2018-09-21T00:30:25.255Z,14.40
2018-09-21T00:33:01.860Z,14.20
2018-09-21T00:35:38.316Z,14.10
2018-09-21T00:38:14.761Z,14.20
2018-09-21T00:40:51.396Z,14.10
2018-09-21T00:43:28.052Z,14.00
2018-09-21T00:46:04.838Z,14.20
2018-09-21T00:48:41.496Z,14.40
2018-09-21T00:51:17.912Z,14.40
2018-09-21T00:53:54.456Z,14.30
2018-09-21T00:56:30.973Z,14.00
2018-09-21T00:59:07.433Z,13.90
2018-09-21T01:01:43.992Z,13.90
2018-09-21T01:04:20.563Z,13.80
2018-09-21T01:06:56.994Z,13.90
2018-09-21T01:09:33.521Z,14.00
2018-09-21T01:12:09.920Z,14.20
2018-09-21T01:14:46.278Z,14.30
2018-09-21T01:17:22.689Z,14.40
2018-09-21T01:19:59.412Z,14.50
2018-09-21T01:22:35.975Z,14.40
2018-09-21T01:25:12.512Z,14.40
2018-09-21T01:27:49.004Z,14.20
2018-09-21T01:30:25.473Z,14.20
2018-09-21T01:33:02.092Z,14.30
2018-09-21T01:35:38.799Z,14.20
2018-09-21T01:38:15.181Z,13.90
2018-09-21T01:40:51.721Z,14.20
2018-09-21T01:43:28.195Z,14.20
2018-09-21T01:46:04.453Z,14.00
2018-09-21T01:48:40.933Z,14.00
2018-09-21T01:51:17.481Z,14.10
2018-09-21T01:53:53.822Z,14.00
2018-09-21T01:56:30.196Z,13.90
2018-09-21T01:59:06.721Z,13.70
2018-09-21T02:01:43.333Z,13.70
2018-09-21T02:04:19.858Z,13.70
2018-09-21T02:06:57.290Z,13.80
2018-09-21T02:09:33.643Z,13.60
2018-09-21T02:12:10.325Z,13.70
2018-09-21T02:14:46.636Z,13.60
2018-09-21T02:17:23.233Z,13.60
2018-09-21T02:19:59.821Z,13.50
2018-09-21T02:22:36.154Z,13.70
2018-09-21T02:25:12.641Z,13.80
2018-09-21T02:27:49.243Z,14.00
2018-09-21T02:30:25.802Z,13.80
2018-09-21T02:33:02.281Z,13.50
2018-09-21T02:35:38.774Z,13.60
2018-09-21T02:38:15.293Z,13.90
2018-09-21T02:40:51.746Z,14.10
2018-09-21T02:43:28.121Z,13.90
2018-09-21T02:46:04.495Z,13.60
2018-09-21T02:48:41.021Z,13.80
2018-09-21T02:51:17.503Z,13.40
2018-09-21T02:53:53.981Z,13.40
2018-09-21T02:56:30.546Z,13.60
2018-09-21T02:59:06.921Z,13.50
2018-09-21T03:01:43.313Z,13.20
2018-09-21T03:04:19.874Z,13.00
2018-09-21T03:06:56.174Z,13.40
2018-09-21T03:09:32.770Z,13.50
2018-09-21T03:12:09.363Z,13.40
2018-09-21T03:14:45.886Z,13.40
2018-09-21T03:17:22.400Z,13.50
2018-09-21T03:19:58.959Z,13.10
2018-09-21T03:22:35.342Z,12.90
2018-09-21T03:25:11.722Z,13.10
2018-09-21T03:27:48.221Z,13.00
2018-09-21T03:30:24.722Z,12.90
2018-09-21T03:33:01.088Z,13.00
2018-09-21T03:35:37.622Z,13.00
2018-09-21T03:38:14.066Z,13.00
2018-09-21T03:40:50.681Z,13.30
2018-09-21T03:43:27.101Z,13.10
2018-09-21T03:46:03.724Z,13.00
2018-09-21T03:48:40.133Z,12.80
2018-09-21T03:51:16.802Z,12.80
2018-09-21T03:53:53.332Z,12.80
2018-09-21T03:56:29.869Z,12.80
2018-09-21T03:59:06.254Z,12.70
2018-09-21T04:01:42.669Z,12.60
2018-09-21T04:04:19.244Z,12.60
2018-09-21T04:06:55.841Z,12.80
2018-09-21T04:09:32.144Z,13.00
2018-09-21T04:12:08.573Z,13.20
2018-09-21T04:14:45.077Z,13.00
2018-09-21T04:17:21.617Z,13.20
2018-09-21T04:19:58.081Z,13.30
2018-09-21T04:22:34.875Z,13.40
2018-09-21T04:25:11.438Z,13.20
2018-09-21T04:27:47.863Z,13.10
2018-09-21T04:30:24.562Z,13.00
2018-09-21T04:33:01.151Z,13.20
2018-09-21T04:35:37.508Z,13.20
2018-09-21T04:38:14.022Z,13.10
2018-09-21T04:40:50.666Z,13.30
2018-09-21T04:43:27.215Z,13.00
2018-09-21T04:46:03.643Z,12.90
2018-09-21T04:48:40.154Z,12.60
2018-09-21T04:51:16.697Z,12.50
2018-09-21T04:53:53.161Z,12.90
2018-09-21T04:56:29.545Z,13.00
2018-09-21T04:59:06.140Z,13.00
2018-09-21T05:01:42.802Z,12.80
2018-09-21T05:04:19.218Z,12.60
2018-09-21T05:06:55.681Z,12.50
2018-09-21T05:09:32.080Z,12.50
2018-09-21T05:12:08.669Z,12.60
2018-09-21T05:14:45.168Z,12.80
2018-09-21T05:17:21.721Z,12.60
2018-09-21T05:20:00.337Z,12.70
2018-09-21T05:22:36.598Z,12.50
2018-09-21T05:25:13.099Z,12.50
2018-09-21T05:27:49.581Z,12.70
2018-09-21T05:30:26.062Z,12.80
2018-09-21T05:33:02.429Z,13.00
2018-09-21T05:35:39.618Z,13.10
2018-09-21T05:38:16.189Z,13.00
2018-09-21T05:40:52.781Z,13.20
2018-09-21T05:43:29.240Z,13.20
2018-09-21T05:46:05.856Z,13.30
2018-09-21T05:48:42.324Z,13.00
2018-09-21T05:51:19.036Z,13.00
2018-09-21T05:53:55.682Z,13.20
2018-09-21T05:56:32.072Z,13.00
2018-09-21T05:59:08.480Z,13.10
2018-09-21T06:01:45.101Z,13.20
2018-09-21T06:04:21.525Z,13.30
2018-09-21T06:06:58.029Z,13.40
2018-09-21T06:09:34.495Z,13.30
2018-09-21T06:12:10.894Z,13.00
2018-09-21T06:14:47.233Z,13.00
2018-09-21T06:17:23.833Z,13.00
2018-09-21T06:20:11.868Z,13.10
2018-09-21T06:22:44.980Z,13.10
2018-09-21T06:25:21.368Z,13.20
2018-09-21T06:27:57.910Z,13.10
2018-09-21T06:30:34.331Z,12.90
2018-09-21T06:33:10.882Z,13.00
2018-09-21T06:35:47.257Z,13.00
2018-09-21T06:38:23.653Z,13.30
2018-09-21T06:41:00.101Z,13.40
2018-09-21T06:43:36.514Z,13.40
2018-09-21T06:46:13.021Z,13.50
2018-09-21T06:48:49.966Z,13.50
2018-09-21T06:51:26.314Z,13.60
2018-09-21T06:54:02.973Z,13.50
2018-09-21T06:56:39.461Z,13.50
2018-09-21T06:59:15.893Z,13.70
2018-09-21T07:01:52.283Z,13.70
2018-09-21T07:04:28.751Z,13.60
2018-09-21T07:07:05.298Z,13.70
2018-09-21T07:09:41.494Z,13.70
2018-09-21T07:12:17.836Z,13.80
2018-09-21T07:14:54.191Z,13.80
2018-09-21T07:17:30.590Z,13.80
2018-09-21T07:20:06.979Z,13.90
2018-09-21T07:22:43.494Z,13.80
2018-09-21T07:25:19.992Z,13.90
2018-09-21T07:27:56.363Z,14.00
2018-09-21T07:30:33.236Z,14.10
2018-09-21T07:33:09.551Z,14.30
2018-09-21T07:35:46.222Z,14.50
2018-09-21T07:38:22.658Z,14.60
2018-09-21T07:40:59.256Z,14.70
2018-09-21T07:43:35.657Z,15.40
2018-09-21T07:46:12.224Z,15.90
2018-09-21T07:48:48.852Z,16.40
2018-09-21T07:51:25.361Z,16.50
2018-09-21T07:54:01.771Z,16.70
2018-09-21T07:56:38.266Z,16.20
2018-09-21T07:59:14.622Z,16.00
2018-09-21T08:01:51.262Z,16.20
2018-09-21T08:04:27.768Z,16.20
2018-09-21T08:07:04.450Z,16.30
2018-09-21T08:09:40.973Z,16.30
2018-09-21T08:12:17.486Z,16.40
2018-09-21T08:14:54.038Z,16.50
2018-09-21T08:17:30.517Z,16.60
2018-09-21T08:20:07.194Z,16.70
2018-09-21T08:22:43.721Z,16.80
2018-09-21T08:25:20.162Z,17.00
2018-09-21T08:27:56.644Z,17.20
2018-09-21T08:30:33.033Z,17.20
2018-09-21T08:33:09.631Z,17.30
2018-09-21T08:35:47.266Z,17.60
2018-09-21T08:38:23.623Z,17.70
2018-09-21T08:40:59.934Z,17.70
2018-09-21T08:43:36.381Z,17.90
2018-09-21T08:46:13.025Z,18.30
2018-09-21T08:48:49.642Z,18.40
2018-09-21T08:51:25.861Z,18.40
2018-09-21T08:54:02.415Z,18.40
2018-09-21T08:56:38.715Z,18.60
2018-09-21T08:59:15.253Z,18.70
2018-09-21T09:01:51.674Z,18.80
2018-09-21T09:04:28.201Z,18.80
2018-09-21T09:07:04.774Z,19.00
2018-09-21T09:09:41.221Z,19.10
2018-09-21T09:12:17.502Z,19.20
2018-09-21T09:14:54.000Z,19.40
2018-09-21T09:17:30.368Z,19.50
2018-09-21T09:20:07.481Z,19.60
2018-09-21T09:22:43.825Z,19.60
2018-09-21T09:25:20.157Z,19.70
2018-09-21T09:27:56.594Z,19.90
2018-09-21T09:30:33.004Z,20.00
2018-09-21T09:33:09.454Z,20.30
2018-09-21T09:35:45.774Z,20.40
2018-09-21T09:38:22.128Z,20.50
2018-09-21T09:40:58.544Z,20.60
2018-09-21T09:43:34.906Z,20.70
2018-09-21T09:46:11.295Z,20.70
2018-09-21T09:48:47.822Z,20.80
2018-09-21T09:51:24.342Z,20.80
2018-09-21T09:54:00.782Z,21.00
2018-09-21T09:56:37.241Z,21.10
2018-09-21T09:59:13.762Z,21.20
2018-09-21T10:01:50.202Z,21.40
2018-09-21T10:04:26.702Z,21.50
2018-09-21T10:07:03.161Z,21.50
2018-09-21T10:09:39.623Z,21.40
2018-09-21T10:12:16.045Z,21.50
2018-09-21T10:14:52.416Z,21.50
2018-09-21T10:17:28.923Z,21.60
2018-09-21T10:20:05.443Z,21.70
2018-09-21T10:22:41.861Z,21.70
2018-09-21T10:25:18.357Z,21.80
2018-09-21T10:27:54.997Z,21.90
2018-09-21T10:30:31.378Z,22.10
2018-09-21T10:33:08.637Z,22.10
2018-09-21T10:35:45.046Z,22.10
2018-09-21T10:38:21.424Z,22.10
2018-09-21T10:40:57.854Z,22.20
2018-09-21T10:43:34.562Z,22.30
2018-09-21T10:46:11.018Z,22.40
2018-09-21T10:48:47.561Z,22.60
2018-09-21T10:51:24.083Z,22.60
2018-09-21T10:54:01.100Z,22.60
2018-09-21T10:56:37.685Z,22.80
2018-09-21T10:59:14.198Z,22.90
2018-09-21T11:01:50.565Z,23.00
2018-09-21T11:04:26.959Z,22.90
2018-09-21T11:07:03.427Z,23.00
2018-09-21T11:09:39.973Z,23.10
2018-09-21T11:12:16.405Z,23.30
2018-09-21T11:14:53.082Z,23.40
2018-09-21T11:17:29.586Z,23.50
2018-09-21T11:20:06.422Z,23.50
2018-09-21T11:22:42.878Z,23.60
2018-09-21T11:25:21.497Z,23.60
2018-09-21T11:27:57.974Z,23.70
2018-09-21T11:30:34.308Z,24.00
2018-09-21T11:33:10.865Z,24.10
2018-09-21T11:35:47.541Z,24.30
2018-09-21T11:38:24.032Z,24.20
2018-09-21T11:41:00.617Z,24.40
2018-09-21T11:43:37.315Z,24.30
2018-09-21T11:46:13.943Z,24.60
2018-09-21T11:48:50.568Z,24.40
2018-09-21T11:51:27.103Z,24.70
2018-09-21T11:54:03.769Z,25.00
2018-09-21T11:56:40.379Z,25.20
2018-09-21T11:59:16.802Z,25.30
2018-09-21T12:01:53.407Z,25.40
2018-09-21T12:04:29.895Z,25.10
2018-09-21T12:07:06.457Z,25.00
2018-09-21T12:09:43.033Z,25.20
2018-09-21T12:12:19.554Z,25.40
2018-09-21T12:14:55.865Z,25.40
2018-09-21T12:17:32.277Z,25.20
2018-09-21T12:20:08.732Z,25.00
2018-09-21T12:22:45.188Z,24.90
2018-09-21T12:25:21.780Z,24.80
2018-09-21T12:27:58.353Z,24.40
2018-09-21T12:30:34.775Z,24.30
2018-09-21T12:33:11.402Z,24.20
2018-09-21T12:35:47.930Z,24.10
2018-09-21T12:38:24.262Z,24.30
2018-09-21T12:41:00.630Z,24.40
2018-09-21T12:43:37.130Z,24.60
2018-09-21T12:46:23.562Z,24.80
2018-09-21T12:49:03.244Z,24.80
2018-09-21T12:51:39.763Z,24.90
2018-09-21T12:54:16.425Z,25.30
2018-09-21T12:56:52.930Z,25.70
2018-09-21T12:59:29.465Z,25.80
2018-09-21T13:02:05.738Z,26.00
2018-09-21T13:04:42.342Z,26.10
2018-09-21T13:07:18.838Z,25.80
2018-09-21T13:09:55.265Z,26.10
2018-09-21T13:12:31.681Z,26.30
2018-09-21T13:15:08.775Z,26.50
2018-09-21T13:17:45.261Z,26.50
2018-09-21T13:20:21.537Z,26.60
2018-09-21T13:22:58.005Z,26.50
2018-09-21T13:25:34.365Z,26.40
2018-09-21T13:28:11.179Z,27.00
2018-09-21T13:30:48.300Z,27.20
2018-09-21T13:33:24.758Z,27.10
2018-09-21T13:36:01.286Z,27.30
2018-09-21T13:38:38.009Z,26.50
2018-09-21T13:41:14.514Z,26.00
2018-09-21T13:43:51.052Z,25.60
2018-09-21T13:46:27.599Z,25.50
2018-09-21T13:49:04.145Z,26.10
2018-09-21T13:51:40.654Z,26.60
2018-09-21T13:54:17.065Z,26.50
2018-09-21T13:56:53.625Z,26.50
2018-09-21T13:59:30.079Z,26.30
2018-09-21T14:02:06.822Z,25.70
2018-09-21T14:04:43.295Z,25.20
2018-09-21T14:07:19.864Z,25.00
2018-09-21T14:09:56.385Z,24.80
2018-09-21T14:12:32.903Z,24.80
2018-09-21T14:15:09.584Z,24.60
2018-09-21T14:17:46.247Z,24.80
2018-09-21T14:20:22.774Z,24.60
2018-09-21T14:22:59.402Z,24.70
2018-09-21T14:25:35.800Z,24.80
2018-09-21T14:28:12.302Z,24.90
2018-09-21T14:30:48.804Z,24.80
2018-09-21T14:33:25.372Z,24.60
2018-09-21T14:36:02.990Z,25.30
2018-09-21T14:38:39.521Z,25.60
2018-09-21T14:41:16.855Z,25.40
2018-09-21T14:43:54.288Z,25.60
2018-09-21T14:46:30.733Z,25.70
2018-09-21T14:49:07.130Z,25.40
2018-09-21T14:51:43.643Z,25.00
2018-09-21T14:54:20.286Z,24.60
2018-09-21T14:56:56.881Z,24.70
2018-09-21T14:59:33.412Z,24.90
2018-09-21T15:02:10.017Z,24.60
2018-09-21T15:04:46.442Z,24.70
2018-09-21T15:07:22.761Z,24.40
2018-09-21T15:09:59.308Z,24.00
2018-09-21T15:12:35.910Z,23.90
2018-09-21T15:15:12.473Z,23.70
2018-09-21T15:17:48.974Z,23.50
2018-09-21T15:20:25.751Z,23.20
2018-09-21T15:23:02.189Z,23.30
2018-09-21T15:25:38.784Z,23.30
2018-09-21T15:28:15.191Z,23.20
2018-09-21T15:30:51.808Z,23.20
2018-09-21T15:33:28.272Z,23.00
2018-09-21T15:36:04.766Z,22.90
2018-09-21T15:38:41.260Z,22.90
2018-09-21T15:41:17.824Z,22.90
2018-09-21T15:43:54.268Z,22.80
2018-09-21T15:46:30.755Z,22.80
2018-09-21T15:49:07.529Z,22.70
2018-09-21T15:51:44.247Z,22.80
2018-09-21T15:54:20.765Z,23.00
2018-09-21T15:56:57.352Z,22.90
2018-09-21T15:59:34.045Z,22.90
2018-09-21T16:02:12.601Z,22.60
2018-09-21T16:04:48.899Z,22.70
2018-09-21T16:07:25.478Z,22.60
2018-09-21T16:10:01.909Z,22.50
2018-09-21T16:12:38.659Z,22.80
2018-09-21T16:15:14.974Z,22.90
2018-09-21T16:17:51.434Z,22.60
2018-09-21T16:20:27.942Z,22.50
2018-09-21T16:23:04.282Z,22.50
2018-09-21T16:25:40.665Z,22.50
2018-09-21T16:28:17.117Z,22.50
2018-09-21T16:30:53.697Z,22.70
2018-09-21T16:33:30.922Z,22.70
2018-09-21T16:36:07.350Z,22.70
2018-09-21T16:38:44.142Z,22.60
2018-09-21T16:41:20.696Z,22.50
2018-09-21T16:44:03.948Z,22.30
2018-09-21T16:46:40.496Z,22.10
2018-09-21T16:49:17.225Z,21.80
2018-09-21T16:51:53.634Z,21.40
2018-09-21T16:54:30.129Z,21.30
2018-09-21T16:57:06.658Z,21.40
2018-09-21T16:59:43.173Z,21.40
2018-09-21T17:02:19.651Z,21.40
2018-09-21T17:04:56.590Z,21.40
2018-09-21T17:07:33.113Z,21.20
2018-09-21T17:10:09.707Z,21.10
2018-09-21T17:12:46.176Z,21.10
2018-09-21T17:15:22.708Z,20.90
2018-09-21T17:17:59.287Z,20.90
2018-09-21T17:20:35.863Z,21.20
2018-09-21T17:23:12.272Z,21.10
2018-09-21T17:25:48.982Z,21.10
2018-09-21T17:28:25.503Z,20.80
2018-09-21T17:31:02.596Z,20.50
2018-09-21T17:33:39.188Z,20.60
2018-09-21T17:36:15.700Z,20.60
2018-09-21T17:38:52.265Z,20.50
2018-09-21T17:41:29.402Z,20.50
2018-09-21T17:44:05.850Z,20.50
2018-09-21T17:46:42.666Z,20.80
2018-09-21T17:49:24.471Z,21.10
2018-09-21T17:52:00.962Z,21.10
2018-09-21T17:54:37.479Z,21.70
2018-09-21T17:57:14.043Z,21.30
2018-09-21T17:59:50.381Z,21.30
2018-09-21T18:02:27.493Z,21.80
2018-09-21T18:05:03.854Z,21.90
2018-09-21T18:07:40.407Z,22.00
2018-09-21T18:10:16.949Z,21.90
2018-09-21T18:12:53.490Z,22.10
2018-09-21T18:15:30.255Z,21.90
2018-09-21T18:18:06.901Z,21.90
2018-09-21T18:20:43.466Z,21.90
2018-09-21T18:23:20.097Z,21.60
2018-09-21T18:25:56.709Z,21.60
2018-09-21T18:28:33.215Z,21.80
2018-09-21T18:31:09.614Z,22.00
2018-09-21T18:33:49.547Z,22.00
2018-09-21T18:36:25.926Z,21.50
2018-09-21T18:38:57.865Z,21.40
2018-09-21T18:41:28.981Z,21.50
2018-09-21T18:44:00.005Z,21.50
2018-09-21T18:46:30.977Z,21.70
2018-09-21T18:49:01.977Z,21.90
2018-09-21T18:51:32.895Z,22.00
2018-09-21T18:54:04.025Z,21.90
2018-09-21T18:56:35.054Z,21.70
2018-09-21T18:59:06.212Z,21.60
2018-09-21T19:01:37.914Z,21.60
2018-09-21T19:04:09.049Z,21.40
2018-09-21T19:06:40.123Z,21.40
2018-09-21T19:09:12.567Z,21.40
2018-09-21T19:11:45.376Z,21.40
2018-09-21T19:14:16.385Z,21.70
2018-09-21T19:16:47.139Z,21.50
2018-09-21T19:19:18.604Z,21.20
2018-09-21T19:21:49.625Z,21.10
2018-09-21T19:24:20.664Z,21.10
2018-09-21T19:26:51.598Z,21.00
2018-09-21T19:29:22.337Z,21.20
2018-09-21T19:31:53.453Z,21.10
2018-09-21T19:34:24.444Z,20.70
2018-09-21T19:36:55.200Z,20.40
2018-09-21T19:39:26.183Z,19.70
2018-09-21T19:41:57.216Z,19.50
2018-09-21T19:44:28.134Z,19.20
2018-09-21T19:46:59.161Z,19.10
2018-09-21T19:49:32.149Z,19.10
2018-09-21T19:52:04.393Z,19.10
2018-09-21T19:54:35.463Z,19.00
2018-09-21T19:57:06.402Z,19.20
2018-09-21T19:59:37.417Z,19.40
2018-09-21T20:02:08.376Z,19.40
2018-09-21T20:04:40.192Z,19.30
2018-09-21T20:07:11.266Z,19.50
2018-09-21T20:09:42.913Z,19.40
2018-09-21T20:12:14.542Z,19.30
2018-09-21T20:14:45.875Z,18.90
2018-09-21T20:17:17.830Z,18.90
2018-09-21T20:19:49.074Z,18.60
2018-09-21T20:22:21.026Z,18.40
2018-09-21T20:24:53.389Z,18.50
2018-09-21T20:27:24.222Z,18.70
2018-09-21T20:30:59.599Z,18.60
2018-09-21T20:33:32.194Z,18.30
2018-09-21T20:36:03.142Z,18.40
2018-09-21T20:38:34.340Z,18.70
2018-09-21T20:41:05.292Z,18.70
2018-09-21T20:43:36.258Z,18.80
2018-09-21T20:46:07.242Z,19.00
2018-09-21T20:48:38.136Z,18.90
2018-09-21T20:51:09.282Z,18.90
2018-09-21T20:53:41.045Z,19.10
2018-09-21T20:56:11.974Z,19.00
2018-09-21T20:58:42.970Z,18.60
2018-09-21T21:01:13.917Z,18.50
2018-09-21T21:03:44.889Z,18.30
2018-09-21T21:06:15.890Z,18.30
2018-09-21T21:08:46.863Z,18.10
2018-09-21T21:11:18.836Z,18.00
2018-09-21T21:13:49.766Z,17.80
2018-09-21T21:16:20.684Z,17.70
2018-09-21T21:18:51.609Z,17.70
2018-09-21T21:21:22.604Z,17.80
2018-09-21T21:23:53.616Z,17.50
2018-09-21T21:26:24.554Z,17.00
2018-09-21T21:28:55.502Z,16.70
2018-09-21T21:31:26.454Z,16.70
2018-09-21T21:33:57.301Z,16.70
2018-09-21T21:36:29.230Z,16.70
2018-09-21T21:39:00.528Z,16.60
2018-09-21T21:41:31.502Z,16.50
2018-09-21T21:44:02.381Z,16.40
2018-09-21T21:46:33.309Z,16.70
2018-09-21T21:49:05.132Z,16.60
2018-09-21T21:51:36.071Z,16.30
2018-09-21T21:54:07.122Z,16.50
2018-09-21T21:56:40.458Z,16.60
2018-09-21T21:59:11.373Z,16.80
2018-09-21T22:01:47.596Z,16.20
2018-09-21T22:04:19.261Z,16.10
2018-09-21T22:06:50.237Z,16.00
2018-09-21T22:09:21.134Z,16.20
2018-09-21T22:11:57.892Z,16.30
2018-09-21T22:14:29.563Z,16.40
2018-09-21T22:17:00.534Z,16.30
2018-09-21T22:19:31.405Z,16.20
2018-09-21T22:22:02.361Z,16.10
2018-09-21T22:24:33.218Z,16.00
2018-09-21T22:27:04.062Z,15.80
2018-09-21T22:29:34.941Z,15.50
2018-09-21T22:32:05.942Z,15.50
2018-09-21T22:34:36.795Z,15.50
2018-09-21T22:37:07.818Z,15.60
2018-09-21T22:39:38.684Z,15.30
2018-09-21T22:42:09.682Z,15.10
2018-09-21T22:44:40.593Z,14.60
2018-09-21T22:47:11.542Z,14.50
2018-09-21T22:49:42.401Z,14.40
2018-09-21T22:52:13.341Z,14.60
2018-09-21T22:54:44.221Z,14.80
2018-09-21T22:57:15.185Z,14.80
2018-09-21T22:59:46.061Z,14.60
2018-09-21T23:02:16.993Z,14.40
2018-09-21T23:04:48.035Z,14.20
2018-09-21T23:07:19.941Z,14.10
2018-09-21T23:09:51.170Z,14.00
2018-09-21T23:12:22.169Z,13.80
2018-09-21T23:14:53.289Z,13.80
2018-09-21T23:17:24.196Z,13.90
2018-09-21T23:19:55.142Z,13.70
2018-09-21T23:22:26.025Z,13.60
2018-09-21T23:24:56.826Z,13.50
2018-09-21T23:27:27.741Z,13.30
2018-09-21T23:29:59.035Z,13.20
2018-09-21T23:32:30.281Z,13.20
2018-09-21T23:35:01.210Z,13.20
2018-09-21T23:37:32.101Z,12.90
2018-09-21T23:40:02.956Z,12.70
2018-09-21T23:42:34.256Z,12.80
2018-09-21T23:45:05.473Z,12.70
2018-09-21T23:47:36.441Z,12.60
2018-09-21T23:50:07.530Z,12.60
2018-09-21T23:52:38.538Z,12.50
2018-09-21T23:55:09.477Z,12.50
2018-09-21T23:57:40.387Z,12.50
